createdAt,value
2018-02-09T00:00:35.399Z,0
2018-02-09T00:01:44.598Z,0
2018-02-09T00:02:53.358Z,0
2018-02-09T00:04:02.054Z,0
2018-02-09T00:05:10.760Z,0
2018-02-09T00:06:19.487Z,0
2018-02-09T00:07:28.466Z,0
2018-02-09T00:08:37.455Z,0
2018-02-09T00:09:46.399Z,0
2018-02-09T00:10:55.879Z,0
2018-02-09T00:12:05.353Z,0
2018-02-09T00:13:14.562Z,0
2018-02-09T00:14:23.518Z,0
2018-02-09T00:15:32.756Z,0
2018-02-09T00:16:41.464Z,0
2018-02-09T00:17:51.051Z,0
2018-02-09T00:18:59.792Z,0
2018-02-09T00:20:09.261Z,0
2018-02-09T00:21:18.500Z,0
2018-02-09T00:22:27.491Z,0
2018-02-09T00:23:36.191Z,0
2018-02-09T00:24:45.169Z,0
2018-02-09T00:25:53.922Z,0
2018-02-09T00:27:02.617Z,0
2018-02-09T00:28:11.323Z,0
2018-02-09T00:29:20.291Z,0
2018-02-09T00:30:29.793Z,0
2018-02-09T00:31:39.013Z,0
2018-02-09T00:32:47.707Z,0
2018-02-09T00:33:57.232Z,0
2018-02-09T00:35:06.432Z,0
2018-02-09T00:36:15.131Z,0
2018-02-09T00:37:24.071Z,0
2018-02-09T00:38:32.880Z,0
2018-02-09T00:39:41.603Z,0
2018-02-09T00:40:50.310Z,0
2018-02-09T00:41:59.000Z,0
2018-02-09T00:43:07.694Z,0
2018-02-09T00:44:17.426Z,0
2018-02-09T00:45:26.147Z,0
2018-02-09T00:46:34.856Z,0
2018-02-09T00:47:43.551Z,0
2018-02-09T00:48:53.039Z,0
2018-02-09T00:50:02.266Z,0
2018-02-09T00:51:11.244Z,0
2018-02-09T00:52:20.475Z,0
2018-02-09T00:53:30.040Z,0
2018-02-09T00:54:39.255Z,0
2018-02-09T00:55:48.787Z,0
2018-02-09T00:56:57.784Z,0
2018-02-09T00:58:06.736Z,0
2018-02-09T00:59:15.801Z,0
2018-02-09T01:00:24.535Z,0
2018-02-09T01:01:33.260Z,0
2018-02-09T01:02:42.455Z,0
2018-02-09T01:03:51.395Z,0
2018-02-09T01:05:00.709Z,0
2018-02-09T01:06:10.210Z,0
2018-02-09T01:07:18.908Z,0
2018-02-09T01:08:28.115Z,0
2018-02-09T01:09:37.071Z,0
2018-02-09T01:10:46.264Z,0
2018-02-09T01:11:55.489Z,0
2018-02-09T01:13:04.432Z,0
2018-02-09T01:14:13.398Z,0
2018-02-09T01:15:22.348Z,0
2018-02-09T01:16:31.278Z,0
2018-02-09T01:17:39.982Z,0
2018-02-09T01:18:49.185Z,0
2018-02-09T01:19:58.436Z,0
2018-02-09T01:21:07.930Z,0
2018-02-09T01:22:16.885Z,0
2018-02-09T01:23:26.088Z,0
2018-02-09T01:24:35.317Z,0
2018-02-09T01:25:44.028Z,0
2018-02-09T01:26:52.993Z,0
2018-02-09T01:28:01.716Z,0
2018-02-09T01:29:10.399Z,0
2018-02-09T01:30:19.145Z,0
2018-02-09T01:31:28.093Z,0
2018-02-09T01:32:37.073Z,0
2018-02-09T01:33:46.560Z,0
2018-02-09T01:34:55.557Z,0
2018-02-09T01:36:04.499Z,0
2018-02-09T01:37:13.714Z,0
2018-02-09T01:38:22.414Z,0
2018-02-09T01:39:31.706Z,0
2018-02-09T01:40:40.687Z,0
2018-02-09T01:41:49.627Z,0
2018-02-09T01:42:58.829Z,0
2018-02-09T01:44:08.146Z,0
2018-02-09T01:45:17.378Z,0
2018-02-09T01:46:26.065Z,0
2018-02-09T01:47:34.755Z,0
2018-02-09T01:48:43.691Z,0
2018-02-09T01:49:53.204Z,0
2018-02-09T01:51:01.886Z,0
2018-02-09T01:52:11.091Z,0
2018-02-09T01:53:20.051Z,0
2018-02-09T01:54:29.525Z,0
2018-02-09T01:55:38.209Z,0
2018-02-09T01:56:47.440Z,0
2018-02-09T01:57:56.137Z,0
2018-02-09T01:59:04.995Z,0
2018-02-09T02:00:13.677Z,0
2018-02-09T02:01:22.898Z,0
2018-02-09T02:02:31.872Z,0
2018-02-09T02:03:41.353Z,0
2018-02-09T02:04:50.833Z,0
2018-02-09T02:06:00.048Z,0
2018-02-09T02:07:09.024Z,0
2018-02-09T02:08:18.225Z,0
2018-02-09T02:09:27.451Z,0
2018-02-09T02:10:36.398Z,0
2018-02-09T02:11:45.355Z,0
2018-02-09T02:12:54.051Z,0
2018-02-09T02:14:03.270Z,0
2018-02-09T02:15:12.215Z,0
2018-02-09T02:16:21.189Z,0
2018-02-09T02:17:30.160Z,0
2018-02-09T02:18:39.161Z,0
2018-02-09T02:19:47.881Z,0
2018-02-09T02:20:56.586Z,0
2018-02-09T02:22:05.827Z,0
2018-02-09T02:23:14.796Z,0
2018-02-09T02:24:23.486Z,0
2018-02-09T02:25:32.272Z,0
2018-02-09T02:26:41.239Z,0
2018-02-09T02:27:50.450Z,0
2018-02-09T02:28:59.393Z,0
2018-02-09T02:30:08.374Z,0
2018-02-09T02:31:17.181Z,0
2018-02-09T02:32:26.664Z,0
2018-02-09T02:33:35.619Z,0
2018-02-09T02:34:44.573Z,0
2018-02-09T02:35:53.777Z,0
2018-02-09T02:37:02.786Z,0
2018-02-09T02:38:12.289Z,0
2018-02-09T02:39:21.037Z,0
2018-02-09T02:40:30.271Z,0
2018-02-09T02:41:39.215Z,0
2018-02-09T02:42:48.212Z,0
2018-02-09T02:43:57.687Z,0
2018-02-09T02:45:06.654Z,0
2018-02-09T02:46:15.611Z,0
2018-02-09T02:47:24.320Z,0
2018-02-09T02:48:33.594Z,0
2018-02-09T02:49:43.380Z,0
2018-02-09T02:50:52.867Z,0
2018-02-09T02:52:01.572Z,0
2018-02-09T02:53:10.786Z,0
2018-02-09T02:54:19.734Z,0
2018-02-09T02:55:29.217Z,0
2018-02-09T02:56:38.420Z,0
2018-02-09T02:57:48.214Z,0
2018-02-09T02:58:57.163Z,0
2018-02-09T03:00:06.404Z,0
2018-02-09T03:01:15.886Z,0
2018-02-09T03:02:25.095Z,0
2018-02-09T03:03:34.089Z,0
2018-02-09T03:04:42.703Z,0
2018-02-09T03:05:51.915Z,0
2018-02-09T03:07:01.136Z,0
2018-02-09T03:08:10.083Z,0
2018-02-09T03:09:19.019Z,0
2018-02-09T03:10:28.292Z,0
2018-02-09T03:11:37.794Z,0
2018-02-09T03:12:46.994Z,0
2018-02-09T03:13:55.931Z,0
2018-02-09T03:15:05.150Z,0
2018-02-09T03:16:14.093Z,0
2018-02-09T03:17:23.399Z,0
2018-02-09T03:18:32.108Z,0
2018-02-09T03:19:41.089Z,0
2018-02-09T03:20:50.370Z,0
2018-02-09T03:21:59.583Z,0
2018-02-09T03:23:08.814Z,0
2018-02-09T03:24:17.567Z,0
2018-02-09T03:25:26.564Z,0
2018-02-09T03:26:35.554Z,0
2018-02-09T03:27:44.519Z,0
2018-02-09T03:28:53.477Z,0
2018-02-09T03:30:02.727Z,0
2018-02-09T03:31:12.215Z,0
2018-02-09T03:32:21.148Z,0
2018-02-09T03:33:30.116Z,0
2018-02-09T03:34:39.085Z,0
2018-02-09T03:35:48.311Z,0
2018-02-09T03:36:57.520Z,0
2018-02-09T03:38:06.464Z,0
2018-02-09T03:39:15.139Z,0
2018-02-09T03:40:24.597Z,0
2018-02-09T03:41:33.546Z,0
2018-02-09T03:42:42.738Z,0
2018-02-09T03:43:51.430Z,0
2018-02-09T03:45:00.408Z,0
2018-02-09T03:46:09.100Z,0
2018-02-09T03:47:17.816Z,0
2018-02-09T03:48:26.779Z,0
2018-02-09T03:49:36.683Z,0
2018-02-09T03:50:45.626Z,0
2018-02-09T03:51:54.675Z,0
2018-02-09T03:53:03.627Z,0
2018-02-09T03:54:12.853Z,0
2018-02-09T03:55:21.556Z,0
2018-02-09T03:56:31.321Z,0
2018-02-09T03:57:40.109Z,0
2018-02-09T03:58:49.087Z,0
2018-02-09T03:59:58.842Z,0
2018-02-09T04:01:07.524Z,0
2018-02-09T04:02:16.486Z,0
2018-02-09T04:03:25.426Z,0
2018-02-09T04:04:34.673Z,0
2018-02-09T04:05:43.644Z,0
2018-02-09T04:06:52.602Z,0
2018-02-09T04:08:01.314Z,0
2018-02-09T04:09:10.251Z,0
2018-02-09T04:10:19.479Z,0
2018-02-09T04:11:28.165Z,0
2018-02-09T04:12:36.844Z,0
2018-02-09T04:13:45.796Z,0
2018-02-09T04:14:55.015Z,0
2018-02-09T04:16:03.980Z,0
2018-02-09T04:17:12.919Z,0
2018-02-09T04:18:21.861Z,0
2018-02-09T04:19:31.087Z,0
2018-02-09T04:20:40.040Z,0
2018-02-09T04:21:49.002Z,0
2018-02-09T04:22:58.270Z,0
2018-02-09T04:24:07.213Z,0
2018-02-09T04:25:16.735Z,0
2018-02-09T04:26:25.679Z,0
2018-02-09T04:27:34.606Z,0
2018-02-09T04:28:43.844Z,0
2018-02-09T04:29:53.089Z,0
2018-02-09T04:31:01.783Z,0
2018-02-09T04:32:10.974Z,0
2018-02-09T04:33:19.939Z,0
2018-02-09T04:34:29.162Z,0
2018-02-09T04:35:38.128Z,0
2018-02-09T04:36:47.430Z,0
2018-02-09T04:37:56.486Z,0
2018-02-09T04:39:05.164Z,0
2018-02-09T04:40:14.202Z,0
2018-02-09T04:41:22.894Z,0
2018-02-09T04:42:31.631Z,0
2018-02-09T04:43:40.952Z,0
2018-02-09T04:44:50.180Z,0
2018-02-09T04:45:59.399Z,0
2018-02-09T04:47:08.591Z,0
2018-02-09T04:48:17.569Z,0
2018-02-09T04:49:27.052Z,0
2018-02-09T04:50:36.523Z,0
2018-02-09T04:51:45.747Z,0
2018-02-09T04:52:55.077Z,0
2018-02-09T04:54:04.024Z,0
2018-02-09T04:55:12.716Z,0
2018-02-09T04:56:21.712Z,0
2018-02-09T04:57:30.916Z,0
2018-02-09T04:58:40.125Z,0
2018-02-09T04:59:49.093Z,0
2018-02-09T05:00:58.172Z,0
2018-02-09T05:02:07.632Z,0
2018-02-09T05:03:16.573Z,0
2018-02-09T05:04:25.277Z,0
2018-02-09T05:05:34.515Z,0
2018-02-09T05:06:43.466Z,0
2018-02-09T05:07:52.678Z,0
2018-02-09T05:09:01.677Z,0
2018-02-09T05:10:11.489Z,0
2018-02-09T05:11:20.450Z,0
2018-02-09T05:12:29.435Z,0
2018-02-09T05:13:38.116Z,0
2018-02-09T05:14:47.079Z,0
2018-02-09T05:15:56.542Z,0
2018-02-09T05:17:05.538Z,0
2018-02-09T05:18:14.265Z,0
2018-02-09T05:19:23.237Z,0
2018-02-09T05:20:32.199Z,0
2018-02-09T05:21:41.424Z,0
2018-02-09T05:22:50.878Z,0
2018-02-09T05:23:59.808Z,0
2018-02-09T05:25:08.759Z,0
2018-02-09T05:26:17.984Z,0
2018-02-09T05:27:26.997Z,0
2018-02-09T05:28:35.974Z,0
2018-02-09T05:29:45.481Z,0
2018-02-09T05:30:54.233Z,0
2018-02-09T05:32:03.793Z,0
2018-02-09T05:33:12.739Z,0
2018-02-09T05:34:21.970Z,0
2018-02-09T05:35:31.491Z,0
2018-02-09T05:36:40.453Z,0
2018-02-09T05:37:49.163Z,0
2018-02-09T05:38:58.374Z,0
2018-02-09T05:40:07.070Z,0
2018-02-09T05:41:15.892Z,0
2018-02-09T05:42:25.615Z,0
2018-02-09T05:43:34.958Z,0
2018-02-09T05:44:44.591Z,0
2018-02-09T05:45:53.976Z,0
2018-02-09T05:47:02.714Z,0
2018-02-09T05:48:12.232Z,0
2018-02-09T05:49:21.780Z,0
2018-02-09T05:50:30.500Z,0
2018-02-09T05:51:39.954Z,0
2018-02-09T05:52:50.043Z,0
2018-02-09T05:53:59.480Z,0
2018-02-09T05:55:08.701Z,0
2018-02-09T05:56:17.947Z,0
2018-02-09T05:57:26.898Z,0
2018-02-09T05:58:36.194Z,0
2018-02-09T05:59:45.680Z,0
2018-02-09T06:00:54.657Z,0
2018-02-09T06:02:03.641Z,0
2018-02-09T06:03:12.714Z,0
2018-02-09T06:04:21.436Z,0
2018-02-09T06:05:30.666Z,0
2018-02-09T06:06:39.618Z,0
2018-02-09T06:07:49.100Z,0
2018-02-09T06:08:57.790Z,0
2018-02-09T06:10:06.491Z,0
2018-02-09T06:11:15.176Z,0
2018-02-09T06:12:24.135Z,0
2018-02-09T06:13:33.156Z,0
2018-02-09T06:14:42.138Z,0
2018-02-09T06:15:51.095Z,0
2018-02-09T06:17:00.106Z,0
2018-02-09T06:18:09.359Z,0
2018-02-09T06:19:18.102Z,0
2018-02-09T06:20:27.942Z,0
2018-02-09T06:21:36.940Z,0
2018-02-09T06:22:46.192Z,0
2018-02-09T06:23:55.704Z,0
2018-02-09T06:25:04.698Z,0
2018-02-09T06:26:13.772Z,0
2018-02-09T06:27:22.747Z,0
2018-02-09T06:28:32.004Z,0
2018-02-09T06:29:41.514Z,4
2018-02-09T06:30:50.749Z,4
2018-02-09T06:31:59.748Z,0
2018-02-09T06:33:08.709Z,4
2018-02-09T06:34:17.397Z,4
2018-02-09T06:35:26.144Z,4
2018-02-09T06:36:35.383Z,4
2018-02-09T06:37:44.661Z,4
2018-02-09T06:38:53.610Z,4
2018-02-09T06:40:02.850Z,12
2018-02-09T06:41:11.539Z,12
2018-02-09T06:42:20.494Z,12
2018-02-09T06:43:29.346Z,12
2018-02-09T06:44:38.293Z,12
2018-02-09T06:45:47.531Z,16
2018-02-09T06:46:56.762Z,24
2018-02-09T06:48:05.764Z,24
2018-02-09T06:49:14.993Z,28
2018-02-09T06:50:23.732Z,32
2018-02-09T06:51:32.687Z,32
2018-02-09T06:52:41.374Z,40
2018-02-09T06:53:50.062Z,44
2018-02-09T06:54:59.023Z,52
2018-02-09T06:56:08.321Z,56
2018-02-09T06:57:17.255Z,64
2018-02-09T06:58:26.223Z,68
2018-02-09T06:59:34.933Z,72
2018-02-09T07:00:44.173Z,80
2018-02-09T07:01:52.867Z,88
2018-02-09T07:03:02.348Z,96
2018-02-09T07:04:11.351Z,104
2018-02-09T07:05:20.325Z,112
2018-02-09T07:06:29.559Z,120
2018-02-09T07:07:39.014Z,128
2018-02-09T07:08:47.700Z,140
2018-02-09T07:09:56.410Z,152
2018-02-09T07:11:05.601Z,160
2018-02-09T07:12:14.876Z,172
2018-02-09T07:13:24.091Z,180
2018-02-09T07:14:33.314Z,188
2018-02-09T07:15:42.286Z,200
2018-02-09T07:16:50.982Z,212
2018-02-09T07:18:00.451Z,224
2018-02-09T07:19:09.388Z,240
2018-02-09T07:20:18.349Z,252
2018-02-09T07:21:27.570Z,264
2018-02-09T07:22:36.826Z,276
2018-02-09T07:23:45.795Z,288
2018-02-09T07:24:54.492Z,300
2018-02-09T07:26:03.218Z,312
2018-02-09T07:27:12.464Z,332
2018-02-09T07:28:21.696Z,344
2018-02-09T07:29:30.388Z,364
2018-02-09T07:30:39.341Z,384
2018-02-09T07:31:49.123Z,400
2018-02-09T07:32:58.937Z,408
2018-02-09T07:34:07.928Z,420
2018-02-09T07:35:17.174Z,436
2018-02-09T07:36:26.665Z,444
2018-02-09T07:37:35.621Z,464
2018-02-09T07:38:44.329Z,476
2018-02-09T07:39:53.274Z,492
2018-02-09T07:41:02.263Z,512
2018-02-09T07:42:10.984Z,528
2018-02-09T07:43:20.587Z,532
2018-02-09T07:44:29.536Z,564
2018-02-09T07:45:38.771Z,584
2018-02-09T07:46:48.001Z,592
2018-02-09T07:47:57.212Z,596
2018-02-09T07:49:05.934Z,616
2018-02-09T07:50:14.618Z,632
2018-02-09T07:51:23.848Z,644
2018-02-09T07:52:32.669Z,656
2018-02-09T07:53:41.358Z,668
2018-02-09T07:54:50.577Z,684
2018-02-09T07:55:59.278Z,700
2018-02-09T07:57:08.819Z,720
2018-02-09T07:58:17.778Z,736
2018-02-09T07:59:26.506Z,752
2018-02-09T08:00:35.453Z,772
2018-02-09T08:01:44.419Z,796
2018-02-09T08:02:53.665Z,816
2018-02-09T08:04:02.992Z,828
2018-02-09T08:05:11.946Z,856
2018-02-09T08:06:21.289Z,868
2018-02-09T08:07:29.971Z,884
2018-02-09T08:08:39.219Z,900
2018-02-09T08:09:48.204Z,896
2018-02-09T08:10:57.473Z,904
2018-02-09T08:12:06.177Z,896
2018-02-09T08:13:15.520Z,892
2018-02-09T08:14:24.392Z,912
2018-02-09T08:15:33.913Z,964
2018-02-09T08:16:42.630Z,1032
2018-02-09T08:17:51.889Z,1080
2018-02-09T08:19:00.868Z,1120
2018-02-09T08:20:09.565Z,1148
2018-02-09T08:21:19.075Z,1164
2018-02-09T08:22:28.004Z,1200
2018-02-09T08:23:36.948Z,1216
2018-02-09T08:24:46.729Z,1232
2018-02-09T08:25:55.937Z,1244
2018-02-09T08:27:05.247Z,1256
2018-02-09T08:28:13.936Z,1280
2018-02-09T08:29:22.890Z,1276
2018-02-09T08:30:32.362Z,1280
2018-02-09T08:31:41.308Z,1276
2018-02-09T08:32:50.112Z,1280
2018-02-09T08:33:58.815Z,1252
2018-02-09T08:35:08.066Z,1224
2018-02-09T08:36:17.309Z,1224
2018-02-09T08:37:26.275Z,1236
2018-02-09T08:38:34.964Z,1248
2018-02-09T08:39:44.189Z,1236
2018-02-09T08:40:52.904Z,1228
2018-02-09T08:42:01.854Z,1236
2018-02-09T08:43:10.569Z,1228
2018-02-09T08:44:19.321Z,1196
2018-02-09T08:45:28.532Z,1168
2018-02-09T08:46:37.744Z,1180
2018-02-09T08:47:46.712Z,1184
2018-02-09T08:48:55.407Z,1196
2018-02-09T08:50:04.408Z,1244
2018-02-09T08:51:13.633Z,1256
2018-02-09T08:52:22.404Z,1304
2018-02-09T08:53:31.366Z,1364
2018-02-09T08:54:40.087Z,1388
2018-02-09T08:55:49.062Z,1356
2018-02-09T08:56:58.270Z,1288
2018-02-09T08:58:07.499Z,1248
2018-02-09T08:59:16.469Z,1232
2018-02-09T09:00:25.523Z,1196
2018-02-09T09:01:34.965Z,1180
2018-02-09T09:02:44.212Z,1172
2018-02-09T09:03:53.460Z,1184
2018-02-09T09:05:02.423Z,1176
2018-02-09T09:06:11.932Z,1176
2018-02-09T09:07:21.173Z,1168
2018-02-09T09:08:30.424Z,1164
2018-02-09T09:09:39.411Z,1152
2018-02-09T09:10:48.125Z,1144
2018-02-09T09:11:57.614Z,1160
2018-02-09T09:13:07.125Z,1192
2018-02-09T09:14:16.875Z,1232
2018-02-09T09:15:26.137Z,1280
2018-02-09T09:16:35.121Z,1304
2018-02-09T09:17:44.585Z,1332
2018-02-09T09:18:53.397Z,1352
2018-02-09T09:20:02.471Z,1352
2018-02-09T09:21:11.630Z,1368
2018-02-09T09:22:20.844Z,1396
2018-02-09T09:23:29.542Z,1424
2018-02-09T09:24:39.053Z,1452
2018-02-09T09:25:48.017Z,1480
2018-02-09T09:26:57.240Z,1504
2018-02-09T09:28:06.468Z,1512
2018-02-09T09:29:15.172Z,1532
2018-02-09T09:30:24.115Z,1540
2018-02-09T09:31:33.071Z,1532
2018-02-09T09:32:42.024Z,1544
2018-02-09T09:33:50.720Z,1544
2018-02-09T09:34:59.945Z,1548
2018-02-09T09:36:09.420Z,1556
2018-02-09T09:37:18.377Z,1552
2018-02-09T09:38:27.323Z,1556
2018-02-09T09:39:36.279Z,1544
2018-02-09T09:40:45.498Z,1532
2018-02-09T09:41:54.473Z,1528
2018-02-09T09:43:03.726Z,1548
2018-02-09T09:44:13.218Z,1556
2018-02-09T09:45:21.902Z,1548
2018-02-09T09:46:30.876Z,1564
2018-02-09T09:47:39.553Z,1552
2018-02-09T09:48:49.303Z,1552
2018-02-09T09:49:58.292Z,1548
2018-02-09T09:51:07.273Z,1544
2018-02-09T09:52:15.953Z,1552
2018-02-09T09:53:24.912Z,1544
2018-02-09T09:54:34.440Z,1556
2018-02-09T09:55:43.751Z,1548
2018-02-09T09:56:52.668Z,1532
2018-02-09T09:58:01.646Z,1520
2018-02-09T09:59:10.347Z,1512
2018-02-09T10:00:19.293Z,1496
2018-02-09T10:01:27.978Z,1412
2018-02-09T10:02:36.950Z,1336
2018-02-09T10:03:45.910Z,1296
2018-02-09T10:04:54.618Z,1216
2018-02-09T10:06:03.308Z,1220
2018-02-09T10:07:12.265Z,1196
2018-02-09T10:08:21.221Z,1208
2018-02-09T10:09:30.159Z,1232
2018-02-09T10:10:39.114Z,1236
2018-02-09T10:11:48.329Z,1228
2018-02-09T10:12:57.546Z,1264
2018-02-09T10:14:06.498Z,1240
2018-02-09T10:15:15.476Z,1272
2018-02-09T10:16:24.558Z,1340
2018-02-09T10:17:33.281Z,1300
2018-02-09T10:18:43.019Z,1296
2018-02-09T10:19:52.793Z,1344
2018-02-09T10:21:01.512Z,1348
2018-02-09T10:22:10.850Z,1348
2018-02-09T10:23:19.825Z,1404
2018-02-09T10:24:29.116Z,1420
2018-02-09T10:25:38.340Z,1392
2018-02-09T10:26:47.314Z,1372
2018-02-09T10:27:56.558Z,1384
2018-02-09T10:29:05.550Z,1396
2018-02-09T10:30:14.494Z,1456
2018-02-09T10:31:23.451Z,1416
2018-02-09T10:32:32.403Z,1416
2018-02-09T10:33:41.631Z,1380
2018-02-09T10:34:50.335Z,1388
2018-02-09T10:35:59.295Z,1448
2018-02-09T10:37:08.535Z,1416
2018-02-09T10:38:17.783Z,1424
2018-02-09T10:39:27.010Z,1436
2018-02-09T10:40:36.251Z,1400
2018-02-09T10:41:45.498Z,1328
2018-02-09T10:42:54.718Z,1332
2018-02-09T10:44:03.406Z,1332
2018-02-09T10:45:12.932Z,1296
2018-02-09T10:46:21.907Z,1296
2018-02-09T10:47:30.881Z,1328
2018-02-09T10:48:40.387Z,1276
2018-02-09T10:49:49.348Z,1248
2018-02-09T10:50:58.563Z,1248
2018-02-09T10:52:07.525Z,1284
2018-02-09T10:53:17.008Z,1312
2018-02-09T10:54:25.711Z,1272
2018-02-09T10:55:34.706Z,1224
2018-02-09T10:56:44.507Z,1236
2018-02-09T10:57:54.003Z,1228
2018-02-09T10:59:02.951Z,1196
2018-02-09T11:00:12.227Z,1212
2018-02-09T11:01:20.952Z,1228
2018-02-09T11:02:29.940Z,1228
2018-02-09T11:03:38.894Z,1256
2018-02-09T11:04:47.851Z,1292
2018-02-09T11:05:57.111Z,1264
2018-02-09T11:07:05.807Z,1296
2018-02-09T11:08:15.347Z,1376
2018-02-09T11:09:24.370Z,1340
2018-02-09T11:10:33.361Z,1296
2018-02-09T11:11:42.376Z,1316
2018-02-09T11:12:51.338Z,1324
2018-02-09T11:14:00.379Z,1324
2018-02-09T11:15:09.419Z,1372
2018-02-09T11:16:18.370Z,1388
2018-02-09T11:17:27.079Z,1276
2018-02-09T11:18:36.036Z,1320
2018-02-09T11:19:44.726Z,1372
2018-02-09T11:20:53.432Z,1364
2018-02-09T11:22:02.376Z,1332
2018-02-09T11:23:11.076Z,1324
2018-02-09T11:24:20.040Z,1296
2018-02-09T11:25:29.245Z,1292
2018-02-09T11:26:38.201Z,1356
2018-02-09T11:27:47.196Z,1364
2018-02-09T11:28:55.923Z,1224
2018-02-09T11:30:05.210Z,1272
2018-02-09T11:31:14.491Z,1336
2018-02-09T11:32:23.514Z,1340
2018-02-09T11:33:32.487Z,1332
2018-02-09T11:34:41.734Z,1348
2018-02-09T11:35:50.680Z,1328
2018-02-09T11:36:59.368Z,1380
2018-02-09T11:38:08.326Z,1344
2018-02-09T11:39:17.327Z,1280
2018-02-09T11:40:27.088Z,1292
2018-02-09T11:41:35.823Z,1440
2018-02-09T11:42:45.210Z,1432
2018-02-09T11:43:54.175Z,1432
2018-02-09T11:45:03.142Z,1280
2018-02-09T11:46:12.093Z,1252
2018-02-09T11:47:21.090Z,1316
2018-02-09T11:48:30.310Z,1436
2018-02-09T11:49:39.292Z,1404
2018-02-09T11:50:48.225Z,1364
2018-02-09T11:51:57.431Z,1368
2018-02-09T11:53:06.690Z,1428
2018-02-09T11:54:15.704Z,1400
2018-02-09T11:55:25.285Z,1376
2018-02-09T11:56:34.012Z,1260
2018-02-09T11:57:43.240Z,1228
2018-02-09T11:58:52.561Z,1216
2018-02-09T12:00:02.536Z,1236
2018-02-09T12:01:11.497Z,1248
2018-02-09T12:02:20.743Z,1252
2018-02-09T12:03:29.450Z,1188
2018-02-09T12:04:38.942Z,1164
2018-02-09T12:05:48.181Z,1160
2018-02-09T12:06:56.956Z,1152
2018-02-09T12:08:05.636Z,1148
2018-02-09T12:09:15.155Z,1196
2018-02-09T12:10:24.125Z,1212
2018-02-09T12:11:33.080Z,1156
2018-02-09T12:12:42.091Z,1124
2018-02-09T12:13:51.858Z,1104
2018-02-09T12:15:00.601Z,1104
2018-02-09T12:16:09.877Z,1060
2018-02-09T12:17:19.143Z,1064
2018-02-09T12:18:28.634Z,1076
2018-02-09T12:19:37.588Z,1092
2018-02-09T12:20:46.292Z,1056
2018-02-09T12:21:55.307Z,1032
2018-02-09T12:23:04.083Z,996
2018-02-09T12:24:12.773Z,1004
2018-02-09T12:25:21.469Z,1016
2018-02-09T12:26:30.223Z,1020
2018-02-09T12:27:39.379Z,1016
2018-02-09T12:28:48.922Z,1016
2018-02-09T12:29:57.627Z,1028
2018-02-09T12:31:06.316Z,996
2018-02-09T12:32:15.570Z,1012
2018-02-09T12:33:24.539Z,1024
2018-02-09T12:34:33.770Z,1060
2018-02-09T12:35:42.718Z,1128
2018-02-09T12:36:51.987Z,1164
2018-02-09T12:38:01.270Z,1124
2018-02-09T12:39:10.416Z,1092
2018-02-09T12:40:19.112Z,1088
2018-02-09T12:41:28.100Z,1320
2018-02-09T12:42:36.813Z,1416
2018-02-09T12:43:45.800Z,1276
2018-02-09T12:44:55.525Z,1148
2018-02-09T12:46:04.821Z,1028
2018-02-09T12:47:13.543Z,956
2018-02-09T12:48:23.057Z,964
2018-02-09T12:49:32.326Z,964
2018-02-09T12:50:41.319Z,992
2018-02-09T12:51:50.960Z,972
2018-02-09T12:53:00.195Z,996
2018-02-09T12:54:09.179Z,984
2018-02-09T12:55:18.416Z,992
2018-02-09T12:56:27.095Z,996
2018-02-09T12:57:36.427Z,956
2018-02-09T12:58:45.128Z,1004
2018-02-09T12:59:54.128Z,1092
2018-02-09T13:01:03.357Z,1120
2018-02-09T13:02:12.324Z,1116
2018-02-09T13:03:21.314Z,1040
2018-02-09T13:04:30.275Z,1028
2018-02-09T13:05:39.513Z,1144
2018-02-09T13:06:48.507Z,976
2018-02-09T13:07:57.491Z,896
2018-02-09T13:09:06.452Z,904
2018-02-09T13:10:15.732Z,904
2018-02-09T13:11:24.768Z,936
2018-02-09T13:12:34.034Z,944
2018-02-09T13:13:42.987Z,908
2018-02-09T13:14:51.675Z,896
2018-02-09T13:16:00.647Z,892
2018-02-09T13:17:09.627Z,888
2018-02-09T13:18:18.902Z,872
2018-02-09T13:19:27.867Z,864
2018-02-09T13:20:37.186Z,860
2018-02-09T13:21:46.238Z,864
2018-02-09T13:22:55.288Z,856
2018-02-09T13:24:03.988Z,844
2018-02-09T13:25:12.940Z,840
2018-02-09T13:26:22.015Z,844
2018-02-09T13:27:30.986Z,844
2018-02-09T13:28:39.947Z,852
2018-02-09T13:29:48.920Z,856
2018-02-09T13:30:57.604Z,864
2018-02-09T13:32:06.637Z,864
2018-02-09T13:33:15.610Z,860
2018-02-09T13:34:24.843Z,864
2018-02-09T13:35:33.835Z,852
2018-02-09T13:36:42.557Z,844
2018-02-09T13:37:51.298Z,828
2018-02-09T13:39:00.268Z,832
2018-02-09T13:40:08.966Z,820
2018-02-09T13:41:18.192Z,824
2018-02-09T13:42:27.168Z,812
2018-02-09T13:43:35.899Z,796
2018-02-09T13:44:44.582Z,792
2018-02-09T13:45:53.572Z,788
2018-02-09T13:47:02.545Z,784
2018-02-09T13:48:11.520Z,788
2018-02-09T13:49:20.310Z,788
2018-02-09T13:50:29.331Z,780
2018-02-09T13:51:38.587Z,784
2018-02-09T13:52:48.142Z,780
2018-02-09T13:53:57.084Z,780
2018-02-09T13:55:06.306Z,780
2018-02-09T13:56:15.280Z,772
2018-02-09T13:57:24.536Z,760
2018-02-09T13:58:34.032Z,784
2018-02-09T13:59:43.253Z,784
2018-02-09T14:00:52.871Z,780
2018-02-09T14:02:01.597Z,808
2018-02-09T14:03:10.655Z,772
2018-02-09T14:04:19.637Z,752
2018-02-09T14:05:28.381Z,752
2018-02-09T14:06:37.059Z,736
2018-02-09T14:07:46.612Z,728
2018-02-09T14:08:55.853Z,724
2018-02-09T14:10:04.836Z,700
2018-02-09T14:11:13.845Z,712
2018-02-09T14:12:22.862Z,696
2018-02-09T14:13:31.617Z,664
2018-02-09T14:15:05.974Z,656
2018-02-09T14:16:15.243Z,660
2018-02-09T14:17:24.505Z,700
2018-02-09T14:18:33.725Z,700
2018-02-09T14:19:42.505Z,704
2018-02-09T14:20:51.727Z,704
2018-02-09T14:22:00.965Z,692
2018-02-09T14:23:10.017Z,688
2018-02-09T14:24:18.703Z,656
2018-02-09T14:25:27.668Z,648
2018-02-09T14:26:36.937Z,640
2018-02-09T14:27:45.905Z,632
2018-02-09T14:28:55.149Z,660
2018-02-09T14:30:04.110Z,640
2018-02-09T14:31:13.325Z,636
2018-02-09T14:32:22.598Z,636
2018-02-09T14:33:31.576Z,648
2018-02-09T14:34:41.354Z,648
2018-02-09T14:35:50.305Z,632
2018-02-09T14:36:59.818Z,632
2018-02-09T14:38:09.031Z,648
2018-02-09T14:39:18.277Z,660
2018-02-09T14:40:27.509Z,632
2018-02-09T14:41:36.520Z,648
2018-02-09T14:42:45.772Z,632
2018-02-09T14:43:54.456Z,632
2018-02-09T14:45:03.167Z,628
2018-02-09T14:46:12.169Z,620
2018-02-09T14:47:21.159Z,616
2018-02-09T14:48:30.106Z,608
2018-02-09T14:49:39.618Z,616
2018-02-09T14:50:48.315Z,608
2018-02-09T14:51:57.275Z,600
2018-02-09T14:53:06.045Z,600
2018-02-09T14:54:14.733Z,584
2018-02-09T14:55:24.120Z,572
2018-02-09T14:56:32.812Z,564
2018-02-09T14:57:41.777Z,564
2018-02-09T14:58:50.457Z,556
2018-02-09T14:59:59.739Z,556
2018-02-09T15:01:08.697Z,564
2018-02-09T15:02:17.481Z,568
2018-02-09T15:03:26.536Z,572
2018-02-09T15:04:35.517Z,556
2018-02-09T15:05:44.495Z,552
2018-02-09T15:06:53.980Z,584
2018-02-09T15:08:03.265Z,544
2018-02-09T15:09:12.909Z,520
2018-02-09T15:10:21.889Z,516
2018-02-09T15:11:31.183Z,508
2018-02-09T15:12:40.657Z,504
2018-02-09T15:13:49.339Z,528
2018-02-09T15:14:58.823Z,496
2018-02-09T15:16:07.532Z,480
2018-02-09T15:17:16.334Z,484
2018-02-09T15:18:25.017Z,456
2018-02-09T15:19:33.997Z,424
2018-02-09T15:20:42.973Z,392
2018-02-09T15:21:51.990Z,380
2018-02-09T15:23:00.940Z,368
2018-02-09T15:24:09.902Z,364
2018-02-09T15:25:19.125Z,348
2018-02-09T15:26:28.090Z,344
2018-02-09T15:27:37.309Z,332
2018-02-09T15:28:46.307Z,324
2018-02-09T15:29:55.600Z,316
2018-02-09T15:31:04.622Z,308
2018-02-09T15:32:13.895Z,304
2018-02-09T15:33:22.726Z,300
2018-02-09T15:34:31.978Z,296
2018-02-09T15:35:40.950Z,284
2018-02-09T15:36:50.548Z,272
2018-02-09T15:37:59.816Z,268
2018-02-09T15:39:08.857Z,264
2018-02-09T15:40:18.092Z,256
2018-02-09T15:41:27.406Z,252
2018-02-09T15:42:36.265Z,248
2018-02-09T15:43:45.221Z,240
2018-02-09T15:44:54.990Z,240
2018-02-09T15:46:03.940Z,236
2018-02-09T15:47:12.650Z,224
2018-02-09T15:48:21.601Z,216
2018-02-09T15:49:30.796Z,216
2018-02-09T15:50:40.026Z,212
2018-02-09T15:51:49.038Z,204
2018-02-09T15:52:57.758Z,204
2018-02-09T15:54:06.745Z,200
2018-02-09T15:55:16.267Z,196
2018-02-09T15:56:25.010Z,192
2018-02-09T15:57:34.233Z,184
2018-02-09T15:58:43.472Z,180
2018-02-09T15:59:52.204Z,172
2018-02-09T16:01:02.286Z,168
2018-02-09T16:02:10.972Z,164
2018-02-09T16:03:20.204Z,156
2018-02-09T16:04:29.693Z,152
2018-02-09T16:05:38.935Z,144
2018-02-09T16:06:48.594Z,140
2018-02-09T16:07:57.810Z,136
2018-02-09T16:09:07.059Z,132
2018-02-09T16:10:15.767Z,128